Flugplatz Strausberg

Für EDAY sind keine METAR/TAF Berichte vorhanden.
Es werden die Flugwettermeldungen vom Flugplatz Berlin-Schönefeld International in 34 km Entfernung angezeigt.

Bericht für EDDB

vom 31.05. um 09:50 UTC

Wind 12 kt aus 340°

Sichtweite 10 km oder mehr

gering bewölkt in 3600 ft

Temperatur 18.0°C

Taupunkt 9.0°C

Luftfeuchtigkeit 56%

Luftdruck 1021 hPa

keine wesentliche Wetteränderung innerhalb den nächsten 2 Stunden zu erwarten

EDDB 310950Z 34012KT 310V010 9999 FEW036 18/09 Q1021 NOSIG

Prognose für EDDB

vom 31.05. um 05:00 UTC

Zwischen 06:00 UTC und 06:00 UTC

Wind 8 kt aus 350°

Sichtweite 10 km oder mehr

keine signifikanten Wettererscheinungen

keine Wolken


Zwischen 06:00 und 09:00 UTC übergehend zu

Wind 13 kt aus 350°

Sichtweite 10 km oder mehr

keine signifikanten Wettererscheinungen

keine Wolken


Zwischen 09:00 UTC und 18:00 UTC zeitweise

Wind 15 kt aus 10° in Böen 25 kt


Zwischen 18:00 und 21:00 UTC übergehend zu

Wind 8 kt aus 10°

Sichtweite 10 km oder mehr

keine signifikanten Wettererscheinungen

keine Wolken

TAF EDDB 310500Z 3106/0106 35008KT CAVOK BECMG 3106/3109 35013KT TEMPO 3109/3118 01015G25KT BECMG 3118/3121 01008KT
Impressum